This is the latest recevied weather packets stored in our database for station/object WP3OF-5. If no packets are shown the sender has not sent any weather packets the latest 10 day(s).
| Time | Temp. | Humidity | Pressure | Rain* | Wind** | Luminosity | Snow |
|---|---|---|---|---|---|---|---|
| 1777583439 | 26.11° C | 85% | 1012.1 hPa | 0 mm | - | - | - |
| 1777583139 | 26.11° C | 84% | 1012.5 hPa | 0 mm | - | - | - |
| 1777582834 | 26.67° C | 84% | 1012.1 hPa | 0 mm | - | - | - |
| 1777582532 | 26.67° C | 83% | 1012.3 hPa | 0 mm | - | - | - |
| 1777582227 | 26.67° C | 82% | 1012.2 hPa | 0 mm | - | - | - |
| 1777581925 | 26.67° C | 81% | 1012.2 hPa | 0 mm | - | - | - |
| 1777581620 | 26.67° C | 80% | 1012.1 hPa | 0 mm | - | - | - |
| 1777581314 | 26.67° C | 81% | 1012 hPa | 0 mm | - | - | - |
| 1777581010 | 26.67° C | 81% | 1011.8 hPa | 0 mm | - | - | - |
| 1777580709 | 26.67° C | 82% | 1012.1 hPa | 0 mm | - | - | - |
| 1777580405 | 26.67° C | 82% | 1012.2 hPa | 0 mm | - | - | - |
| 1777580101 | 26.67° C | 82% | 1012 hPa | 0 mm | - | - | - |
| 1777579798 | 27.22° C | 81% | 1011.9 hPa | 0 mm | - | - | - |
| 1777579496 | 27.22° C | 81% | 1011.8 hPa | 0 mm | - | - | - |
| 1777579191 | 27.22° C | 81% | 1011.9 hPa | 0 mm | - | - | - |
| 1777578886 | 27.22° C | 81% | 1012.1 hPa | 0 mm | - | - | - |
| 1777578583 | 27.78° C | 80% | 1012.2 hPa | 0 mm | - | - | - |
| 1777578283 | 27.22° C | 81% | 1012.1 hPa | 0 mm | - | - | - |
| 1777577979 | 28.33° C | 77% | 1012 hPa | 0 mm | - | - | - |
| 1777577674 | 28.33° C | 77% | 1012 hPa | 0 mm | - | - | - |
| 1777577372 | 28.89° C | 75% | 1012.4 hPa | 0 mm | - | - | - |
| 1777577067 | 28.33° C | 80% | 1012.3 hPa | 0 mm | - | - | - |
| 1777576764 | 27.78° C | 83% | 1012 hPa | 0 mm | - | - | - |
| 1777576463 | 27.22° C | 81% | 1012.4 hPa | 0 mm | - | - | - |
| 1777576161 | 27.78° C | 82% | 1012.5 hPa | 0 mm | - | - | - |
* Rain latest hour (hover to see other rain measurements)
** Current wind speed in m/s (hover to see current wind gust speed)